Time;durP1;ratioP1;P1;durP2;ratioP2;P2;SDS_P1;SDS_P2;PMS_P1;PMS_P2;Temp;Humidity;BMP_temperature;BMP_pressure;BME280_temperature;BME280_humidity;BME280_pressure;Samples;Min_cycle;Max_cycle;Signal;HPM_P1;HPM_P2
2022/06/20 00:01:55;;;;;;;12.43;3.83;;;;;;;15.62;70.21;101238.22;5091180;28;20499;-61
2022/06/20 00:04:21;;;;;;;8.02;3.45;;;;;;;15.60;70.44;101232.13;5073104;28;20036;-61
2022/06/20 00:06:46;;;;;;;10.77;3.97;;;;;;;15.60;69.88;101224.91;5091084;28;20016;-61
2022/06/20 00:09:12;;;;;;;13.50;4.07;;;;;;;15.52;69.90;101230.03;5073086;28;20506;-61
2022/06/20 00:11:49;;;;;;;10.40;3.70;;;;;;;15.53;70.04;101228.19;5090077;28;20070;-61
2022/06/20 00:14:18;;;;;;;12.65;3.40;;;;;;;15.51;69.16;101236.38;5089054;28;20028;-61
2022/06/20 00:16:45;;;;;;;12.45;3.90;;;;;;;15.56;69.49;101239.56;5091527;28;20024;-61
2022/06/20 00:19:12;;;;;;;10.60;4.03;;;;;;;15.52;69.73;101242.56;5096073;28;20028;-61
2022/06/20 00:21:38;;;;;;;12.50;3.95;;;;;;;15.47;70.12;101255.47;5090246;28;20031;-61
2022/06/20 00:24:07;;;;;;;12.70;3.97;;;;;;;15.56;69.21;101277.09;5072712;28;20065;-61
2022/06/20 00:26:34;;;;;;;8.85;3.22;;;;;;;15.63;69.68;101296.22;5090266;28;20043;-61
2022/06/20 00:29:02;;;;;;;13.73;3.47;;;;;;;15.58;69.77;101306.44;5071959;28;20044;-61
2022/06/20 00:31:32;;;;;;;14.52;3.70;;;;;;;15.65;69.03;101299.66;5089253;28;20023;-62
2022/06/20 00:33:57;;;;;;;12.45;3.88;;;;;;;15.60;70.10;101309.88;5090774;28;20110;-61
2022/06/20 00:36:23;;;;;;;12.25;4.18;;;;;;;15.69;70.50;101327.97;5071166;28;20542;-61
2022/06/20 00:38:54;;;;;;;12.40;3.63;;;;;;;15.57;70.99;101334.25;5072933;28;20036;-61
2022/06/20 00:41:25;;;;;;;13.13;3.97;;;;;;;15.59;72.57;101349.25;5089399;28;20043;-61
2022/06/20 00:43:52;;;;;;;13.18;4.07;;;;;;;15.63;70.53;101374.84;5087588;28;20492;-61
2022/06/20 00:46:22;;;;;;;11.73;3.35;;;;;;;15.64;73.45;101426.66;5089920;28;20019;-61
2022/06/20 00:49:10;;;;;;;11.38;3.85;;;;;;;15.68;71.62;101452.31;5090047;28;20483;-61
2022/06/20 00:51:49;;;;;;;10.95;3.55;;;;;;;15.55;72.51;101481.81;5088346;28;20032;-61
2022/06/20 00:54:43;;;;;;;12.97;4.20;;;;;;;15.57;72.19;101516.56;5072728;28;20081;-61
2022/06/20 00:57:28;;;;;;;12.65;3.60;;;;;;;15.57;72.98;101479.88;5070045;28;20039;-62
2022/06/20 01:00:05;;;;;;;15.15;3.58;;;;;;;15.58;71.79;101460.13;5091053;28;20024;-61
2022/06/20 01:02:34;;;;;;;12.98;3.80;;;;;;;15.46;73.69;101439.59;5089426;28;20074;-61
2022/06/20 01:05:08;;;;;;;10.20;3.22;;;;;;;15.54;74.54;101413.09;5089615;28;20073;-61
2022/06/20 01:07:48;;;;;;;12.13;3.80;;;;;;;15.58;74.37;101427.09;5089854;28;20051;-62
2022/06/20 01:10:15;;;;;;;13.55;4.07;;;;;;;15.57;75.88;101398.59;5090031;28;20433;-61
2022/06/20 01:12:54;;;;;;;13.23;3.92;;;;;;;15.48;75.53;101389.41;5088308;28;20040;-61
2022/06/20 01:15:28;;;;;;;8.45;3.50;;;;;;;15.49;75.43;101380.38;5087671;28;20584;-61
2022/06/20 01:17:54;;;;;;;10.48;3.72;;;;;;;15.42;75.20;101363.91;5090447;28;20016;-61
2022/06/20 01:20:32;;;;;;;11.55;3.85;;;;;;;15.39;76.02;101365.97;5087949;28;20085;-61
2022/06/20 01:23:19;;;;;;;12.73;3.90;;;;;;;15.43;75.23;101351.38;5088466;28;20031;-61
2022/06/20 01:26:09;;;;;;;10.25;3.78;;;;;;;15.50;74.75;101349.06;5089937;28;20040;-61
2022/06/20 01:28:40;;;;;;;15.70;3.85;;;;;;;15.35;74.73;101340.38;5087312;28;20040;-61
2022/06/20 01:31:09;;;;;;;7.60;3.30;;;;;;;15.40;74.48;101332.84;5089001;28;20028;-61
2022/06/20 01:33:36;;;;;;;11.93;3.58;;;;;;;15.33;74.86;101324.41;5087300;28;20024;-61
2022/06/20 01:38:48;;;;;;;13.10;3.42;;;;;;;15.19;74.50;101325.44;5085530;28;20043;-61
2022/06/20 01:44:01;;;;;;;11.68;3.67;;;;;;;15.19;75.21;101295.97;5089876;28;20112;-61
2022/06/20 01:46:30;;;;;;;10.50;3.30;;;;;;;15.20;75.43;101300.34;5088782;28;20089;-61
2022/06/20 01:49:02;;;;;;;10.98;3.85;;;;;;;15.12;74.94;101292.06;5089155;28;20475;-61
2022/06/20 01:51:33;;;;;;;11.70;4.25;;;;;;;15.02;76.00;101296.38;5091555;28;20555;-61
2022/06/20 01:53:59;;;;;;;9.32;3.28;;;;;;;14.98;75.18;101284.19;5092087;28;20032;-61
2022/06/20 01:56:27;;;;;;;10.23;3.10;;;;;;;14.86;75.44;101277.06;5092863;28;20032;-61
2022/06/20 01:59:01;;;;;;;12.73;4.00;;;;;;;14.84;74.96;101289.72;5092134;28;20110;-61
2022/06/20 02:01:30;;;;;;;13.93;4.22;;;;;;;14.70;75.24;101293.41;5095375;28;20483;-61
2022/06/20 02:03:57;;;;;;;15.13;4.10;;;;;;;14.72;74.95;101280.75;5093450;28;20024;-61
2022/06/20 02:06:24;;;;;;;13.23;4.13;;;;;;;14.62;74.46;101275.22;5091394;28;20023;-61
2022/06/20 02:08:54;;;;;;;14.55;3.72;;;;;;;14.46;74.95;101264.75;5093616;28;20016;-61
2022/06/20 02:11:32;;;;;;;11.68;3.63;;;;;;;14.49;75.07;101266.34;5073515;28;20486;-61
2022/06/20 02:14:03;;;;;;;8.90;3.70;;;;;;;14.36;75.36;101262.88;5091867;28;20470;-61
2022/06/20 02:16:32;;;;;;;8.70;3.35;;;;;;;14.31;74.77;101258.69;5074153;28;20486;-61
2022/06/20 02:19:03;;;;;;;11.57;4.30;;;;;;;14.32;75.27;101244.34;5093020;28;20024;-61
2022/06/20 02:21:31;;;;;;;8.57;3.70;;;;;;;14.42;75.30;101241.00;5099620;28;20106;-61
2022/06/20 02:24:04;;;;;;;15.75;3.67;;;;;;;14.52;74.61;101236.72;5092025;28;20024;-61
2022/06/20 02:26:32;;;;;;;8.07;3.42;;;;;;;14.39;74.30;101243.91;5090243;28;20035;-61
2022/06/20 02:29:20;;;;;;;9.68;3.55;;;;;;;14.45;74.24;101238.94;5092704;28;20073;-61
2022/06/20 02:31:46;;;;;;;10.02;3.60;;;;;;;14.32;74.71;101239.00;5089215;28;20032;-61
2022/06/20 02:34:14;;;;;;;13.30;3.92;;;;;;;14.20;74.57;101239.88;5056231;28;20107;-61
2022/06/20 02:36:40;;;;;;;11.77;3.47;;;;;;;14.38;74.05;101244.84;5074300;28;20028;-62
2022/06/20 02:39:06;;;;;;;9.88;3.28;;;;;;;14.27;74.28;101242.97;5074441;28;20483;-61
2022/06/20 02:41:32;;;;;;;9.45;3.35;;;;;;;14.24;74.60;101241.38;5055687;28;20024;-61
2022/06/20 02:44:04;;;;;;;9.40;3.53;;;;;;;14.17;74.93;101239.25;5074344;28;20028;-63
2022/06/20 02:46:31;;;;;;;14.20;3.50;;;;;;;14.10;74.71;101236.16;5090555;28;20475;-62
2022/06/20 02:48:59;;;;;;;9.30;3.58;;;;;;;14.05;74.43;101220.41;5092344;28;20020;-61
2022/06/20 02:51:35;;;;;;;10.70;3.70;;;;;;;14.20;74.47;101231.84;5092685;28;20068;-61
2022/06/20 02:54:03;;;;;;;14.35;3.47;;;;;;;14.02;74.30;101207.28;5091827;28;20138;-61
2022/06/20 02:56:36;;;;;;;7.85;3.47;;;;;;;14.17;74.63;101205.31;5074223;28;20403;-61
2022/06/20 02:59:11;;;;;;;10.45;3.60;;;;;;;14.20;74.10;101196.22;5089689;28;20024;-61
2022/06/20 03:01:57;;;;;;;12.75;4.00;;;;;;;14.17;73.48;101188.41;5098719;28;20026;-61
2022/06/20 03:04:23;;;;;;;11.23;3.50;;;;;;;14.07;73.53;101183.72;5079707;28;20031;-62
2022/06/20 03:07:03;;;;;;;10.35;3.22;;;;;;;14.09;73.97;101191.66;5079741;28;20391;-61
2022/06/20 03:09:34;;;;;;;8.32;2.92;;;;;;;14.06;73.69;101203.44;5091791;28;20032;-61
2022/06/20 03:12:04;;;;;;;9.73;3.55;;;;;;;13.96;73.82;101205.03;5091582;28;20027;-61
2022/06/20 03:14:41;;;;;;;10.30;3.20;;;;;;;14.05;74.03;101209.72;5074024;28;20059;-61
2022/06/20 03:17:08;;;;;;;9.43;3.08;;;;;;;13.94;73.67;101209.66;5073615;28;20027;-61
2022/06/20 03:19:37;;;;;;;12.48;3.83;;;;;;;13.94;73.89;101212.34;5073047;28;20016;-61
2022/06/20 03:22:09;;;;;;;10.68;3.10;;;;;;;13.92;73.65;101210.72;5090277;28;20116;-61
2022/06/20 03:24:36;;;;;;;8.15;3.15;;;;;;;13.91;73.58;101227.72;5091000;28;20023;-61
2022/06/20 03:27:04;;;;;;;10.88;3.00;;;;;;;13.93;73.65;101242.69;5092104;28;20060;-61
2022/06/20 03:29:30;;;;;;;9.90;3.25;;;;;;;14.00;73.01;101227.06;5090819;28;20126;-61
2022/06/20 03:31:58;;;;;;;13.25;3.50;;;;;;;13.99;73.37;101223.53;5062259;28;20491;-61
2022/06/20 03:34:24;;;;;;;9.20;3.65;;;;;;;13.97;73.58;101233.50;5073160;28;20043;-61
2022/06/20 03:36:51;;;;;;;10.63;3.13;;;;;;;13.88;73.28;101239.50;5092194;28;20023;-61
2022/06/20 03:39:21;;;;;;;8.20;3.25;;;;;;;13.79;73.74;101254.34;5073984;28;20471;-61
2022/06/20 03:41:49;;;;;;;;;;;;;;;14.02;72.57;101260.75;5074497;28;20103;-61
2022/06/20 03:44:23;;;;;;;8.95;3.33;;;;;;;13.99;73.03;101276.19;5071854;28;19915;-61
2022/06/20 03:47:03;;;;;;;12.57;3.58;;;;;;;14.08;72.95;101267.50;5089773;28;20016;-61
2022/06/20 03:49:43;;;;;;;11.13;3.55;;;;;;;14.21;72.27;101284.41;5091751;28;20071;-62
2022/06/20 03:52:23;;;;;;;9.35;3.10;;;;;;;14.21;72.29;101297.78;5088945;28;20028;-61
2022/06/20 03:55:00;;;;;;;11.63;3.30;;;;;;;14.30;72.09;101297.13;5090662;28;20024;-61
2022/06/20 03:57:30;;;;;;;8.90;2.80;;;;;;;14.34;72.20;101299.56;5088224;28;20028;-61
2022/06/20 04:00:03;;;;;;;7.93;3.20;;;;;;;14.46;72.04;101301.38;5090891;28;20024;-61
2022/06/20 04:02:37;;;;;;;8.55;3.08;;;;;;;14.52;71.55;101292.91;5089669;28;20107;-61
2022/06/20 04:05:08;;;;;;;7.15;3.13;;;;;;;14.49;71.39;101301.13;5090052;28;20367;-61
2022/06/20 04:07:49;;;;;;;9.82;3.70;;;;;;;14.51;71.79;101291.19;5085029;28;20348;-61
2022/06/20 04:13:23;;;;;;;10.35;3.40;;;;;;;14.63;71.46;101308.22;5088869;28;20047;-61
2022/06/20 04:16:10;;;;;;;8.80;3.10;;;;;;;14.72;71.68;101303.03;5085809;28;20043;-61
2022/06/20 04:18:46;;;;;;;11.38;3.30;;;;;;;14.72;71.64;101313.75;5098123;28;20382;-61
2022/06/20 04:21:21;;;;;;;10.90;3.28;;;;;;;14.66;72.45;101318.69;5099635;28;20024;-61
2022/06/20 04:24:03;;;;;;;14.40;3.33;;;;;;;14.65;72.84;101317.84;5090908;28;20467;-61
2022/06/20 04:26:59;;;;;;;8.57;3.28;;;;;;;14.71;72.53;101319.22;5090028;28;20027;-61
2022/06/20 04:29:32;;;;;;;13.68;3.40;;;;;;;14.63;73.07;101322.44;5086317;28;20043;-61
2022/06/20 04:32:09;;;;;;;11.00;3.47;;;;;;;14.66;73.26;101332.94;5070941;28;20103;-61
2022/06/20 04:34:47;;;;;;;12.02;3.35;;;;;;;14.70;72.91;101337.09;5088983;28;20039;-61
2022/06/20 04:37:28;;;;;;;9.57;3.53;;;;;;;14.68;73.77;101339.03;5090192;28;20075;-61
2022/06/20 04:40:04;;;;;;;10.65;3.60;;;;;;;14.70;73.81;101338.91;5090654;28;20068;-61
2022/06/20 04:42:50;;;;;;;7.70;3.35;;;;;;;14.68;73.84;101338.19;5086375;28;20027;-61
2022/06/20 04:45:22;;;;;;;13.18;3.55;;;;;;;14.69;73.73;101340.75;5089296;28;20506;-61
2022/06/20 04:48:18;;;;;;;5.93;3.00;;;;;;;14.83;73.57;101338.91;5089131;28;20028;-61
2022/06/20 04:50:48;;;;;;;10.63;3.40;;;;;;;14.77;74.06;101351.75;5087991;28;20103;-61
2022/06/20 04:53:18;;;;;;;9.55;3.50;;;;;;;14.84;74.20;101353.97;5088117;28;20024;-61
2022/06/20 04:55:54;;;;;;;13.88;3.80;;;;;;;14.88;74.45;101359.03;5072079;28;20106;-61
2022/06/20 04:58:26;;;;;;;11.25;3.33;;;;;;;14.83;74.62;101355.81;5087644;28;20502;-61
2022/06/20 05:00:56;;;;;;;10.65;3.50;;;;;;;14.82;74.80;101356.75;5087356;28;20028;-62
2022/06/20 05:03:29;;;;;;;9.43;3.22;;;;;;;14.86;75.07;101360.09;5089244;28;20375;-62
2022/06/20 05:05:58;;;;;;;10.15;3.45;;;;;;;14.87;74.22;101359.13;5088851;28;20020;-62
2022/06/20 05:08:31;;;;;;;7.57;2.88;;;;;;;14.98;74.20;101359.19;5088558;28;20028;-62
2022/06/20 05:11:01;;;;;;;7.88;3.08;;;;;;;15.01;74.14;101364.31;5089495;28;20020;-62
2022/06/20 05:13:38;;;;;;;10.48;3.17;;;;;;;15.01;74.35;101358.13;5087198;28;20032;-62
2022/06/20 05:16:11;;;;;;;13.20;3.58;;;;;;;14.97;73.97;101352.97;5096715;28;20023;-62
2022/06/20 05:18:45;;;;;;;10.02;3.25;;;;;;;15.11;73.96;101361.81;5093192;28;20111;-61
2022/06/20 05:21:19;;;;;;;8.32;3.22;;;;;;;15.15;74.38;101368.66;5088652;28;20398;-62
2022/06/20 05:23:52;;;;;;;10.32;3.35;;;;;;;15.12;74.75;101382.28;5090082;28;20077;-61
2022/06/20 05:26:21;;;;;;;10.30;4.00;;;;;;;15.08;74.74;101389.69;5091405;28;20176;-62
2022/06/20 05:28:49;;;;;;;;;;;;;;;15.24;73.39;101386.75;5092424;28;20087;-61
2022/06/20 05:31:28;;;;;;;6.70;3.25;;;;;;;15.20;73.96;101379.88;5092646;28;19912;-61
2022/06/20 05:34:00;;;;;;;10.10;3.58;;;;;;;15.17;74.01;101374.75;5094423;28;20399;-62
2022/06/20 05:36:50;;;;;;;11.88;3.83;;;;;;;15.15;74.07;101361.47;5094541;28;20039;-61
2022/06/20 05:39:31;;;;;;;9.18;3.45;;;;;;;15.25;74.08;101364.31;5091990;28;20067;-61
2022/06/20 05:41:58;;;;;;;7.90;3.40;;;;;;;15.26;74.07;101357.13;5094536;28;20039;-62
2022/06/20 05:44:23;;;;;;;10.13;3.88;;;;;;;15.18;73.83;101350.53;5075504;28;20028;-61
2022/06/20 05:46:56;;;;;;;15.93;4.22;;;;;;;15.19;74.11;101359.44;5074693;28;20377;-61
2022/06/20 05:49:33;;;;;;;10.45;3.55;;;;;;;15.06;74.87;101356.81;5090557;28;20024;-61
2022/06/20 05:52:00;;;;;;;8.93;3.13;;;;;;;14.98;74.06;101365.41;5072906;28;20024;-62
2022/06/20 05:54:42;;;;;;;8.40;3.50;;;;;;;14.91;74.46;101363.28;5075479;28;20483;-61
2022/06/20 05:57:13;;;;;;;10.20;3.92;;;;;;;14.89;74.08;101365.22;5074568;28;20026;-62
2022/06/20 05:59:48;;;;;;;11.23;3.67;;;;;;;14.95;75.14;101378.16;5074431;28;20031;-61
2022/06/20 06:02:32;;;;;;;13.13;3.67;;;;;;;14.95;74.89;101378.16;5092978;28;20118;-61
2022/06/20 06:05:13;;;;;;;10.52;3.70;;;;;;;14.97;74.24;101374.41;5093348;28;20478;-62
2022/06/20 06:07:50;;;;;;;9.38;3.85;;;;;;;14.95;74.77;101379.00;5092657;28;20028;-61
2022/06/20 06:10:24;;;;;;;8.82;3.67;;;;;;;14.99;74.60;101379.63;5090970;28;20036;-61
2022/06/20 06:13:01;;;;;;;8.57;3.75;;;;;;;15.10;74.06;101376.19;5087599;28;20028;-61
2022/06/20 06:16:46;;;;;;;10.80;3.22;;;;;;;15.13;73.41;101382.16;5074321;28;21363;-61
2022/06/20 06:18:31;;;;;;;10.32;3.63;;;;;;;15.12;73.65;101377.78;5090420;28;20034;-61
2022/06/20 06:20:56;;;;;;;8.80;2.92;;;;;;;15.16;73.59;101373.91;5093618;28;20031;-62
2022/06/20 06:23:24;;;;;;;10.63;3.92;;;;;;;15.21;73.77;101382.47;5074863;28;20387;-61
2022/06/20 06:25:50;;;;;;;11.88;3.70;;;;;;;15.32;73.35;101387.00;5093250;28;20449;-61
2022/06/20 06:28:24;;;;;;;6.95;3.05;;;;;;;15.35;72.10;101384.13;5056976;28;20055;-61
2022/06/20 06:31:00;;;;;;;9.00;3.30;;;;;;;15.35;72.02;101394.84;5093256;28;20463;-61
2022/06/20 06:34:05;;;;;;;10.10;3.33;;;;;;;15.43;70.85;101394.25;5093180;28;20035;-61
2022/06/20 06:36:44;;;;;;;6.13;3.28;;;;;;;15.36;71.12;101388.50;5092410;28;20028;-62
2022/06/20 06:39:19;;;;;;;8.38;2.90;;;;;;;15.25;70.52;101380.41;5092180;28;20035;-62
2022/06/20 06:41:49;;;;;;;9.32;2.85;;;;;;;15.25;70.64;101393.81;5093105;28;20047;-62
2022/06/20 06:44:42;;;;;;;10.80;2.75;;;;;;;15.39;70.67;101400.84;5092056;28;20020;-62
2022/06/20 06:47:19;;;;;;;8.45;2.97;;;;;;;15.45;70.25;101403.06;5092147;28;20400;-61
2022/06/20 06:49:50;;;;;;;12.13;3.22;;;;;;;15.63;70.53;101408.84;5091364;28;20020;-62
2022/06/20 06:52:38;;;;;;;8.52;3.00;;;;;;;15.85;70.58;101416.16;5092170;28;20032;-61
2022/06/20 06:55:25;;;;;;;5.32;3.05;;;;;;;15.98;68.77;101416.94;5092823;28;20085;-62
2022/06/20 06:58:27;;;;;;;9.35;2.80;;;;;;;16.00;68.58;101424.84;5092011;28;20019;-61
2022/06/20 07:01:06;;;;;;;5.90;2.65;;;;;;;16.09;66.34;101416.97;5057738;28;20066;-61
2022/06/20 07:03:44;;;;;;;7.57;3.15;;;;;;;16.38;66.26;101415.66;5090985;28;20106;-61
2022/06/20 07:06:31;;;;;;;10.30;3.35;;;;;;;16.72;65.69;101428.13;5091871;28;20428;-61
2022/06/20 07:09:29;;;;;;;7.40;2.90;;;;;;;17.01;64.51;101433.03;5091252;28;20031;-61
2022/06/20 07:12:12;;;;;;;7.10;3.10;;;;;;;17.03;63.00;101436.47;5081866;28;20048;-62
2022/06/20 07:14:42;;;;;;;6.35;2.70;;;;;;;16.80;64.24;101446.38;5074272;28;20486;-62
2022/06/20 07:17:24;;;;;;;7.93;2.65;;;;;;;16.56;65.71;101447.31;5070128;28;20028;-61
2022/06/20 07:19:51;;;;;;;9.82;2.70;;;;;;;16.27;65.18;101441.53;5086016;28;20221;-62
2022/06/20 07:22:19;;;;;;;7.70;3.45;;;;;;;16.02;65.35;101439.00;5073876;28;20028;-62
2022/06/20 07:24:46;;;;;;;7.57;3.10;;;;;;;15.98;65.93;101454.50;5073052;28;20027;-61
2022/06/20 07:27:18;;;;;;;9.98;3.38;;;;;;;15.94;66.11;101450.31;5077421;28;20035;-61
2022/06/20 07:29:52;;;;;;;8.25;3.20;;;;;;;15.98;66.52;101446.44;5087139;28;20031;-61
2022/06/20 07:32:25;;;;;;;4.40;2.35;;;;;;;16.08;64.87;101443.91;5090644;28;20073;-61
2022/06/20 07:34:59;;;;;;;7.47;2.85;;;;;;;16.37;64.36;101444.34;5088880;28;20161;-61
2022/06/20 07:37:35;;;;;;;7.28;2.90;;;;;;;16.56;64.41;101447.31;5091246;28;20431;-61
2022/06/20 07:40:25;;;;;;;6.55;2.85;;;;;;;16.73;64.06;101450.47;5090872;28;20059;-62
2022/06/20 07:43:26;;;;;;;8.50;2.60;;;;;;;16.92;62.28;101452.59;5072400;28;20456;-62
2022/06/20 07:45:55;;;;;;;5.15;2.75;;;;;;;17.13;60.92;101456.22;5085698;28;20040;-62
2022/06/20 07:48:29;;;;;;;8.30;2.70;;;;;;;17.05;61.10;101455.13;5070217;28;20056;-62
2022/06/20 07:51:21;;;;;;;9.82;2.50;;;;;;;16.95;59.29;101463.94;5090621;28;20043;-61
2022/06/20 07:54:24;;;;;;;7.15;2.17;;;;;;;16.76;59.08;101467.22;5086260;28;20103;-62
2022/06/20 07:56:54;;;;;;;5.25;2.47;;;;;;;16.47;58.88;101469.50;5089636;28;20024;-62
2022/06/20 07:59:28;;;;;;;7.90;2.92;;;;;;;16.43;59.96;101461.81;5089545;28;20024;-61
2022/06/20 08:02:12;;;;;;;7.65;2.60;;;;;;;16.55;59.02;101463.53;5089702;28;20425;-61
2022/06/20 08:04:39;;;;;;;5.90;2.75;;;;;;;16.53;59.68;101458.28;5082676;28;20077;-61
2022/06/20 08:07:16;;;;;;;6.53;3.22;;;;;;;16.72;59.76;101465.75;5090468;28;20027;-62
2022/06/20 08:09:56;;;;;;;7.45;2.72;;;;;;;17.15;58.40;101465.03;5090201;28;20758;-62
2022/06/20 08:12:31;;;;;;;6.30;2.60;;;;;;;17.62;54.79;101464.81;5089151;28;20115;-61
2022/06/20 08:15:19;;;;;;;9.95;3.17;;;;;;;17.88;55.49;101463.50;5090541;28;20118;-61
2022/06/20 08:17:45;;;;;;;9.40;2.53;;;;;;;17.84;56.63;101469.28;5070300;28;20064;-62
2022/06/20 08:20:12;;;;;;;6.85;3.30;;;;;;;17.82;57.51;101473.91;5054819;28;20123;-61
2022/06/20 08:23:06;;;;;;;8.93;3.03;;;;;;;17.98;58.25;101476.19;5090203;28;20035;-62
2022/06/20 08:25:37;;;;;;;7.32;2.67;;;;;;;17.87;58.69;101474.41;5071636;28;20100;-62
2022/06/20 08:28:13;;;;;;;10.40;2.53;;;;;;;17.82;59.01;101472.06;5089528;28;20040;-62
2022/06/20 08:30:49;;;;;;;9.90;3.70;;;;;;;17.76;58.86;101479.78;5091073;28;20030;-62
2022/06/20 08:33:23;;;;;;;7.65;3.17;;;;;;;17.48;57.30;101474.84;5090466;28;20032;-61
2022/06/20 08:35:57;;;;;;;8.20;3.10;;;;;;;17.72;57.28;101479.19;5064192;28;20059;-61
2022/06/20 08:38:44;;;;;;;7.85;3.20;;;;;;;17.72;56.08;101460.34;5072379;28;20088;-61
2022/06/20 08:41:24;;;;;;;8.00;3.15;;;;;;;17.98;55.47;101484.25;5090193;28;20035;-61
2022/06/20 08:44:20;;;;;;;6.68;2.85;;;;;;;18.42;54.80;101474.25;5090461;28;20028;-61
2022/06/20 08:46:53;;;;;;;6.88;2.80;;;;;;;18.94;53.97;101483.16;5088540;28;20051;-62
2022/06/20 08:49:37;;;;;;;6.40;3.00;;;;;;;19.11;49.63;101487.06;5082425;28;20040;-61
2022/06/20 08:52:45;;;;;;;5.40;2.80;;;;;;;19.39;52.04;101499.81;5069075;28;20399;-61
2022/06/20 08:55:13;;;;;;;9.82;3.00;;;;;;;18.87;52.15;101498.19;5091121;28;20035;-61
2022/06/20 08:57:42;;;;;;;6.80;2.80;;;;;;;18.49;52.73;101505.88;5089441;28;20423;-61
2022/06/20 09:00:17;;;;;;;6.10;3.25;;;;;;;18.38;52.98;101504.13;5089376;28;20040;-62
2022/06/20 09:03:09;;;;;;;7.93;2.95;;;;;;;18.21;54.54;101510.09;5096652;28;20032;-62
2022/06/20 09:05:50;;;;;;;11.15;3.30;;;;;;;18.10;54.75;101519.06;5089211;28;20372;-62
2022/06/20 09:08:18;;;;;;;7.38;3.22;;;;;;;18.23;54.00;101518.03;5075306;28;20066;-62
2022/06/20 09:11:02;;;;;;;7.77;3.10;;;;;;;18.53;53.17;101509.16;5094107;28;20105;-62
2022/06/20 09:13:51;;;;;;;8.25;2.80;;;;;;;18.86;52.29;101508.13;5075883;28;20289;-62
2022/06/20 09:16:30;;;;;;;9.00;2.95;;;;;;;19.21;51.28;101513.09;5094831;28;20103;-61
2022/06/20 09:18:59;;;;;;;6.97;3.30;;;;;;;19.40;49.78;101506.03;5076127;28;20035;-61
2022/06/20 09:21:50;;;;;;;5.38;2.38;;;;;;;19.43;49.82;101517.41;5094321;28;20089;-61
2022/06/20 09:24:50;;;;;;;6.35;2.92;;;;;;;19.72;50.39;101517.50;5093210;28;20368;-62
2022/06/20 09:27:43;;;;;;;9.18;3.22;;;;;;;19.40;49.41;101528.47;5093983;28;20028;-61
2022/06/20 09:30:18;;;;;;;10.70;3.20;;;;;;;18.94;51.18;101526.31;5093760;28;20024;-62
2022/06/20 09:33:15;;;;;;;11.65;3.55;;;;;;;19.05;51.43;101524.38;5093993;28;20031;-61
2022/06/20 09:36:32;;;;;;;9.85;2.97;;;;;;;19.54;51.48;101523.69;5076103;28;20035;-61
2022/06/20 09:39:35;;;;;;;6.35;2.95;;;;;;;19.89;48.69;101524.06;5033127;28;20038;-61
2022/06/20 09:42:34;;;;;;;9.73;2.92;;;;;;;20.27;48.92;101513.41;5011351;28;20493;-61
2022/06/20 09:45:14;;;;;;;8.18;2.67;;;;;;;20.66;47.08;101518.78;5093936;28;20054;-62
2022/06/20 09:48:05;;;;;;;7.57;2.67;;;;;;;20.52;45.08;101529.03;5093932;28;20050;-62
2022/06/20 09:50:39;;;;;;;5.63;2.40;;;;;;;20.64;45.06;101529.72;5111720;28;20443;-61
2022/06/20 09:53:18;;;;;;;9.13;2.83;;;;;;;20.67;45.02;101515.91;5092619;28;20036;-61
2022/06/20 09:55:53;;;;;;;6.68;2.97;;;;;;;20.91;43.27;101518.09;5075937;28;20115;-61
2022/06/20 09:58:26;;;;;;;6.78;3.20;;;;;;;21.17;41.98;101507.47;5093318;28;20031;-62
2022/06/20 10:01:00;;;;;;;6.88;2.80;;;;;;;21.30;42.53;101510.69;5093786;28;20089;-61
2022/06/20 10:03:41;;;;;;;5.90;3.22;;;;;;;21.40;42.66;101515.22;5093682;28;20032;-61
2022/06/20 10:06:23;;;;;;;7.80;3.65;;;;;;;21.16;43.37;101515.75;5093874;28;20060;-62
2022/06/20 10:09:00;;;;;;;8.45;3.45;;;;;;;20.79;44.92;101527.41;5093565;28;20027;-62
2022/06/20 10:11:42;;;;;;;5.13;2.92;;;;;;;20.78;45.42;101525.72;5092940;28;20038;-62
2022/06/20 10:14:26;;;;;;;6.25;2.88;;;;;;;21.10;44.79;101525.31;5092557;28;20352;-62
2022/06/20 10:17:08;;;;;;;7.00;3.13;;;;;;;21.13;44.67;101522.31;5093620;28;20028;-62
2022/06/20 10:19:59;;;;;;;7.07;3.67;;;;;;;21.05;43.73;101519.50;5093512;28;20016;-62
2022/06/20 10:22:49;;;;;;;8.30;3.95;;;;;;;21.19;44.70;101515.47;5093152;28;20035;-62
2022/06/20 10:25:39;;;;;;;6.90;3.13;;;;;;;21.53;43.46;101531.94;5096291;28;20019;-61
2022/06/20 10:28:24;;;;;;;7.13;3.33;;;;;;;21.98;44.30;101531.94;5112946;28;20044;-61
2022/06/20 10:31:28;;;;;;;7.65;3.30;;;;;;;21.90;44.61;101545.41;5095369;28;20023;-62
2022/06/20 10:34:10;;;;;;;9.52;4.07;;;;;;;21.49;44.72;101541.38;5054437;28;20070;-62
2022/06/20 10:36:54;;;;;;;10.00;4.07;;;;;;;21.84;45.57;101548.72;5074971;28;20523;-62
2022/06/20 10:39:19;;;;;;;9.88;3.30;;;;;;;21.92;43.69;101556.94;5091104;28;20728;-61
2022/06/20 10:42:09;;;;;;;9.52;3.33;;;;;;;22.06;42.22;101554.69;5074711;28;20020;-62
2022/06/20 10:45:09;;;;;;;8.38;3.65;;;;;;;22.06;43.40;101549.25;5073922;28;20024;-61
2022/06/20 10:47:47;;;;;;;6.85;3.10;;;;;;;21.70;41.33;101551.94;5092145;28;20035;-61
2022/06/20 10:50:27;;;;;;;8.60;3.08;;;;;;;21.62;41.51;101551.84;5093286;28;20353;-61
2022/06/20 10:53:00;;;;;;;9.98;3.38;;;;;;;21.66;42.61;101561.38;5092942;28;20035;-62
2022/06/20 10:55:58;;;;;;;10.02;3.22;;;;;;;21.87;41.51;101574.66;5092990;28;20032;-61
2022/06/20 10:58:35;;;;;;;9.15;3.47;;;;;;;21.68;41.62;101565.66;5073738;28;20169;-61
2022/06/20 11:01:18;;;;;;;5.38;3.13;;;;;;;21.60;41.51;101564.69;5092563;28;20024;-61
2022/06/20 11:03:55;;;;;;;6.13;3.08;;;;;;;21.88;42.83;101577.19;5092657;28;20069;-61
2022/06/20 11:06:47;;;;;;;6.65;2.97;;;;;;;22.22;41.46;101569.28;5092662;28;20036;-62
2022/06/20 11:09:24;;;;;;;8.40;3.17;;;;;;;22.50;42.02;101574.63;5092525;28;20034;-62
2022/06/20 11:12:24;;;;;;;6.53;2.95;;;;;;;22.70;41.05;101580.69;5092269;28;20460;-61
2022/06/20 11:15:07;;;;;;;10.90;3.70;;;;;;;22.16;40.67;101580.72;4990540;28;20108;-61
2022/06/20 11:18:08;;;;;;;9.82;3.25;;;;;;;22.17;42.41;101587.00;5082697;28;20050;-62
2022/06/20 11:20:52;;;;;;;7.68;3.33;;;;;;;22.44;40.40;101584.22;5090319;28;20157;-62
2022/06/20 11:23:41;;;;;;;8.98;3.35;;;;;;;22.42;41.75;101579.97;5088978;28;20100;-62
2022/06/20 11:26:26;;;;;;;9.57;2.83;;;;;;;22.70;42.46;101567.13;5080276;28;20497;-61
2022/06/20 11:29:38;;;;;;;11.75;3.33;;;;;;;23.03;40.47;101564.66;5090656;28;20120;-61
2022/06/20 11:32:32;;;;;;;7.60;3.08;;;;;;;22.84;39.89;101574.69;5073422;28;20032;-61
2022/06/20 11:35:16;;;;;;;8.55;3.15;;;;;;;22.75;41.61;101577.50;5091626;28;20024;-62
2022/06/20 11:38:06;;;;;;;9.52;2.95;;;;;;;22.52;40.93;101569.03;5091124;28;20039;-61
2022/06/20 11:40:39;;;;;;;13.10;3.40;;;;;;;22.26;41.92;101579.81;5070688;28;20544;-62
2022/06/20 11:43:29;;;;;;;8.20;3.45;;;;;;;22.05;42.33;101580.09;5072332;28;20028;-62
2022/06/20 11:46:08;;;;;;;10.10;3.50;;;;;;;22.11;42.76;101576.75;5091543;28;20015;-62
2022/06/20 11:48:55;;;;;;;7.25;3.00;;;;;;;22.57;40.99;101572.97;5090955;28;20421;-61
2022/06/20 11:51:29;;;;;;;6.70;3.00;;;;;;;23.04;40.31;101569.94;5088936;28;20036;-62
2022/06/20 11:54:19;;;;;;;11.00;3.30;;;;;;;23.59;40.21;101563.25;5091192;28;20026;-61
2022/06/20 11:56:52;;;;;;;11.02;3.20;;;;;;;23.84;38.89;101557.91;5091236;28;20038;-62
2022/06/20 11:59:29;;;;;;;5.85;2.33;;;;;;;24.09;37.31;101565.09;5072064;28;20486;-62
2022/06/20 12:02:12;;;;;;;7.03;2.30;;;;;;;24.54;36.89;101555.59;5091301;28;20024;-62
2022/06/20 12:05:00;;;;;;;7.43;2.55;;;;;;;25.30;36.03;101559.72;5089673;28;20024;-62
2022/06/20 12:07:38;;;;;;;7.72;2.40;;;;;;;25.08;34.30;101566.72;5090535;28;20119;-62
2022/06/20 12:10:23;;;;;;;7.80;2.70;;;;;;;24.47;34.94;101571.75;5090849;28;20034;-62
2022/06/20 12:13:29;;;;;;;9.02;2.38;;;;;;;23.96;36.69;101571.00;5090762;28;20463;-62
2022/06/20 12:16:26;;;;;;;8.75;2.83;;;;;;;24.08;36.84;101557.94;5073497;28;20035;-61
2022/06/20 12:24:32;;;;;;;7.63;2.63;;;;;;;24.61;33.86;101559.31;5090182;28;20038;-62